Sea Fate — 3FNV5 — position and weather

sailwx.info

Track history (hours):
 
Tides and Currents Weather Stations Pressure Air Temp Water Temp Dewpoint Dewpoint Depression Visibility Wind Speed Wind Dir Waves Ship Positions

Sea Fate

Last reported at 2016-Jun-08 20:33 UTC. Time now 2016-Jul-01 11:46 UTC.
Position N 01°52' E 102°25'.
Warning: this ship's position is 22 days out of date.

Length 152 m; draft 5.4 m.

Type: Cargo ship. MMSI: 354167000.

Date/timePositionNaut miles runAvg speedWind from/ knotsBaromVisibWave heightAir tempDewpointWater temp
2016-Jun-08 20:33N 01°52' E 102°25'1612.5
2016-Jun-08 19:16N 01°46' E 102°40'8010.3
2016-Jun-08 11:29N 01°13' E 103°53'9 9.2
2016-Jun-08 10:31N 01°17' E 104°01'1 0.4
2016-Jun-08 08:27N 01°18' E 104°00'0 0.1
2016-Jun-08 07:33N 01°18' E 104°00'0 0.1
2016-Jun-08 04:21N 01°18' E 104°00'0 0.1
2016-Jun-08 03:27N 01°18' E 104°00'0 0.1
2016-Jun-08 02:27N 01°18' E 104°00'0 0.1
2016-Jun-08 01:27N 01°18' E 104°00'0 0.3
2016-Jun-08 00:33N 01°17' E 104°00'  
2016-May-30 22:10N 29°26' E 122°29'7010.5
2016-May-30 15:29N 30°32' E 122°55'82 8.9
2016-May-30 06:13N 31°22' E 121°38'7 9.9
2016-May-30 05:33N 31°25' E 121°31'1010.4
2016-May-30 04:33N 31°32' E 121°22'1312.4
2016-May-30 03:31N 31°41' E 121°11'  
Track history (hours):
 
Tides and Currents Weather Stations Pressure Air Temp Water Temp Dewpoint Dewpoint Depression Visibility Wind Speed Wind Dir Waves Ship Positions

Sea Fate

Last reported at 2016-Jun-08 20:33 UTC. Time now 2016-Jul-01 11:46 UTC.
Position N 01°52' E 102°25'.
Warning: this ship's position is 22 days out of date.

Length 152 m; draft 5.4 m.

Type: Cargo ship. MMSI: 354167000.

Date/timePositionNaut miles runAvg speedWind from/ knotsBaromVisibWave heightAir tempDewpointWater temp
2016-Jun-08 20:33N 01°52' E 102°25'1612.5
2016-Jun-08 19:16N 01°46' E 102°40'8010.3
2016-Jun-08 11:29N 01°13' E 103°53'9 9.2
2016-Jun-08 10:31N 01°17' E 104°01'1 0.4
2016-Jun-08 08:27N 01°18' E 104°00'0 0.1
2016-Jun-08 07:33N 01°18' E 104°00'0 0.1
2016-Jun-08 04:21N 01°18' E 104°00'0 0.1
2016-Jun-08 03:27N 01°18' E 104°00'0 0.1
2016-Jun-08 02:27N 01°18' E 104°00'0 0.1
2016-Jun-08 01:27N 01°18' E 104°00'0 0.3
2016-Jun-08 00:33N 01°17' E 104°00'  
2016-May-30 22:10N 29°26' E 122°29'7010.5
2016-May-30 15:29N 30°32' E 122°55'82 8.9
2016-May-30 06:13N 31°22' E 121°38'7 9.9
2016-May-30 05:33N 31°25' E 121°31'1010.4
2016-May-30 04:33N 31°32' E 121°22'1312.4
2016-May-30 03:31N 31°41' E 121°11'  

Dump ship's entire track history